createdAt,value
2018-12-27T00:00:41.865Z,16.90
2018-12-27T00:03:23.330Z,15.83
2018-12-27T00:06:04.108Z,16.67
2018-12-27T00:08:44.986Z,15.63
2018-12-27T00:11:25.875Z,16.67
2018-12-27T00:14:06.277Z,15.18
2018-12-27T00:16:47.417Z,15.38
2018-12-27T00:19:28.676Z,16.90
2018-12-27T00:22:09.615Z,14.85
2018-12-27T00:24:50.586Z,16.57
2018-12-27T00:27:31.384Z,17.02
2018-12-27T00:30:12.139Z,17.62
2018-12-27T00:32:52.939Z,16.85
2018-12-27T00:35:33.995Z,15.78
2018-12-27T00:38:15.171Z,16.77
2018-12-27T00:40:56.001Z,15.88
2018-12-27T00:43:36.657Z,15.57
2018-12-27T00:46:17.426Z,16.77
2018-12-27T00:48:58.505Z,16.70
2018-12-27T00:51:40.367Z,15.00
2018-12-27T00:54:21.246Z,16.07
2018-12-27T00:57:01.975Z,17.35
2018-12-27T00:59:43.225Z,14.95
2018-12-27T01:02:24.102Z,17.00
2018-12-27T01:05:04.864Z,15.60
2018-12-27T01:07:45.647Z,17.07
2018-12-27T01:10:26.492Z,19.10
2018-12-27T01:13:07.791Z,18.37
2018-12-27T01:15:48.656Z,18.10
2018-12-27T01:18:29.451Z,17.57
2018-12-27T01:21:10.190Z,18.05
2018-12-27T01:23:51.478Z,16.40
2018-12-27T01:26:32.314Z,17.73
2018-12-27T01:29:12.842Z,18.98
2018-12-27T01:31:54.141Z,18.37
2018-12-27T01:34:34.629Z,17.32
2018-12-27T01:37:15.221Z,17.57
2018-12-27T01:39:55.722Z,19.07
2018-12-27T01:42:36.736Z,19.50
2018-12-27T01:45:17.729Z,19.45
2018-12-27T01:47:58.541Z,19.40
2018-12-27T01:50:39.386Z,18.57
2018-12-27T01:53:20.215Z,20.15
2018-12-27T01:56:00.998Z,19.62
2018-12-27T01:58:42.146Z,18.00
2018-12-27T02:01:22.894Z,18.87
2018-12-27T02:04:03.888Z,17.52
2018-12-27T02:06:44.592Z,17.27
2018-12-27T02:09:25.565Z,18.82
2018-12-27T02:12:06.397Z,18.85
2018-12-27T02:14:47.729Z,19.12
2018-12-27T02:17:28.554Z,17.65
2018-12-27T02:20:09.389Z,17.10
2018-12-27T02:22:50.395Z,18.87
2018-12-27T02:25:30.857Z,16.93
2018-12-27T02:28:11.543Z,18.23
2018-12-27T02:30:52.601Z,17.57
2018-12-27T02:33:35.318Z,18.17
2018-12-27T02:36:15.803Z,18.77
2018-12-27T02:38:56.601Z,16.40
2018-12-27T02:41:37.494Z,15.40
2018-12-27T02:44:18.765Z,15.48
2018-12-27T02:46:59.801Z,15.83
2018-12-27T02:49:40.556Z,14.45
2018-12-27T02:52:21.140Z,13.83
2018-12-27T02:55:02.154Z,13.53
2018-12-27T02:57:43.043Z,12.23
2018-12-27T03:00:24.036Z,13.18
2018-12-27T03:03:05.068Z,13.48
2018-12-27T03:05:45.835Z,12.00
2018-12-27T03:08:26.488Z,12.63
2018-12-27T03:11:07.167Z,12.07
2018-12-27T03:13:47.981Z,11.55
2018-12-27T03:16:28.757Z,12.07
2018-12-27T03:18:57.745Z,11.00
2018-12-27T03:21:45.941Z,11.12
2018-12-27T03:24:34.066Z,10.63
2018-12-27T03:27:14.548Z,10.72
2018-12-27T03:29:55.478Z,11.57
2018-12-27T03:32:36.460Z,11.38
2018-12-27T03:35:17.510Z,9.73
2018-12-27T03:37:58.107Z,11.33
2018-12-27T03:40:38.801Z,10.28
2018-12-27T03:43:19.794Z,9.88
2018-12-27T03:46:00.480Z,10.32
2018-12-27T03:48:41.242Z,11.23
2018-12-27T03:51:21.977Z,9.88
2018-12-27T03:54:02.884Z,9.58
2018-12-27T03:56:43.575Z,10.30
2018-12-27T03:59:24.902Z,9.80
2018-12-27T04:02:05.781Z,10.32
2018-12-27T04:04:46.884Z,10.50
2018-12-27T04:07:27.587Z,9.38
2018-12-27T04:10:08.161Z,9.55
2018-12-27T04:12:48.831Z,11.08
2018-12-27T04:15:29.318Z,10.43
2018-12-27T04:18:10.030Z,10.98
2018-12-27T04:20:50.590Z,10.13
2018-12-27T04:23:31.512Z,9.00
2018-12-27T04:26:12.202Z,8.83
2018-12-27T04:28:53.089Z,10.93
2018-12-27T04:31:34.315Z,9.33
2018-12-27T04:34:15.101Z,8.65
2018-12-27T04:36:55.981Z,9.57
2018-12-27T04:39:36.990Z,11.07
2018-12-27T04:45:01.118Z,9.88
2018-12-27T04:47:42.139Z,9.45
2018-12-27T04:50:22.757Z,10.35
2018-12-27T04:53:04.184Z,11.00
2018-12-27T04:55:44.918Z,10.85
2018-12-27T04:58:25.792Z,11.00
2018-12-27T05:01:06.505Z,10.13
2018-12-27T05:03:47.228Z,10.50
2018-12-27T05:06:27.889Z,9.43
2018-12-27T05:09:08.650Z,10.63
2018-12-27T05:11:49.290Z,10.67
2018-12-27T05:14:30.184Z,10.82
2018-12-27T05:17:10.738Z,11.08
2018-12-27T05:19:51.654Z,10.90
2018-12-27T05:22:32.703Z,10.32
2018-12-27T05:25:14.251Z,11.75
2018-12-27T05:27:54.874Z,13.28
2018-12-27T05:30:35.759Z,11.60
2018-12-27T05:33:16.272Z,14.40
2018-12-27T05:35:57.052Z,14.63
2018-12-27T05:38:38.432Z,15.45
2018-12-27T05:41:18.995Z,15.60
2018-12-27T05:43:59.557Z,16.23
2018-12-27T05:46:40.799Z,14.63
2018-12-27T05:49:21.450Z,14.63
2018-12-27T05:52:01.934Z,13.32
2018-12-27T05:54:42.413Z,12.55
2018-12-27T05:57:23.336Z,13.68
2018-12-27T06:00:04.305Z,12.20
2018-12-27T06:02:45.259Z,14.87
2018-12-27T06:05:26.068Z,12.50
2018-12-27T06:08:06.966Z,12.83
2018-12-27T06:10:47.866Z,11.97
2018-12-27T06:13:28.646Z,14.00
2018-12-27T06:16:09.467Z,14.70
2018-12-27T06:18:50.992Z,12.82
2018-12-27T06:21:32.338Z,12.73
2018-12-27T06:24:12.999Z,13.03
2018-12-27T06:26:54.320Z,12.88
2018-12-27T06:29:34.952Z,11.90
2018-12-27T06:32:15.824Z,12.25
2018-12-27T06:34:56.424Z,13.75
2018-12-27T06:37:37.100Z,12.90
2018-12-27T06:40:17.936Z,13.03
2018-12-27T06:42:58.535Z,13.30
2018-12-27T06:45:39.252Z,13.85
2018-12-27T06:48:19.872Z,12.63
2018-12-27T06:51:00.345Z,13.05
2018-12-27T06:53:41.201Z,12.73
2018-12-27T06:56:21.904Z,13.78
2018-12-27T06:59:02.668Z,13.53
2018-12-27T07:01:43.307Z,13.53
2018-12-27T07:04:23.942Z,12.93
2018-12-27T07:07:04.599Z,12.28
2018-12-27T07:09:45.390Z,12.95
2018-12-27T07:12:26.201Z,13.43
2018-12-27T07:15:07.180Z,12.63
2018-12-27T07:17:48.695Z,12.53
2018-12-27T07:20:29.793Z,12.28
2018-12-27T07:23:10.429Z,11.03
2018-12-27T07:25:51.390Z,13.18
2018-12-27T07:28:31.911Z,13.72
2018-12-27T07:31:12.722Z,12.43
2018-12-27T07:33:53.585Z,13.13
2018-12-27T07:36:34.479Z,12.25
2018-12-27T07:39:15.155Z,13.50
2018-12-27T07:41:55.895Z,12.00
2018-12-27T07:44:36.307Z,12.98
2018-12-27T07:47:17.020Z,13.90
2018-12-27T07:49:57.781Z,13.53
2018-12-27T07:52:38.306Z,14.07
2018-12-27T07:55:18.858Z,15.60
2018-12-27T07:57:59.754Z,13.13
2018-12-27T08:00:40.640Z,14.25
2018-12-27T08:03:21.402Z,15.08
2018-12-27T08:06:02.777Z,13.90
2018-12-27T08:08:43.804Z,13.72
2018-12-27T08:11:24.654Z,15.75
2018-12-27T08:14:05.533Z,14.20
2018-12-27T08:16:46.189Z,15.58
2018-12-27T08:19:26.969Z,16.10
2018-12-27T08:22:07.765Z,14.55
2018-12-27T08:24:48.607Z,16.50
2018-12-27T08:27:29.326Z,14.98
2018-12-27T08:30:10.837Z,16.25
2018-12-27T08:32:51.729Z,14.90
2018-12-27T08:35:32.641Z,16.00
2018-12-27T08:38:13.187Z,15.77
2018-12-27T08:40:54.379Z,14.35
2018-12-27T08:43:35.187Z,13.83
2018-12-27T08:46:15.906Z,14.87
2018-12-27T08:48:56.445Z,14.58
2018-12-27T08:51:37.304Z,14.70
2018-12-27T08:54:17.663Z,15.58
2018-12-27T08:56:58.384Z,15.10
2018-12-27T08:59:39.653Z,16.02
2018-12-27T09:02:20.514Z,15.50
2018-12-27T09:05:01.140Z,15.78
2018-12-27T09:07:42.515Z,15.00
2018-12-27T09:10:23.021Z,15.55
2018-12-27T09:13:04.182Z,15.33
2018-12-27T09:15:44.601Z,17.02
2018-12-27T09:18:25.430Z,16.32
2018-12-27T09:21:06.648Z,15.53
2018-12-27T09:23:47.873Z,16.62
2018-12-27T09:26:28.638Z,15.88
2018-12-27T09:29:09.985Z,15.78
2018-12-27T09:31:50.468Z,15.50
2018-12-27T09:34:31.083Z,15.00
2018-12-27T09:37:11.735Z,14.55
2018-12-27T09:39:52.542Z,16.75
2018-12-27T09:42:33.861Z,17.83
2018-12-27T09:45:15.430Z,17.73
2018-12-27T09:47:56.696Z,15.43
2018-12-27T09:50:37.501Z,17.42
2018-12-27T09:53:18.462Z,16.77
2018-12-27T09:55:59.432Z,17.15
2018-12-27T09:58:40.055Z,16.87
2018-12-27T10:01:20.789Z,16.15
2018-12-27T10:04:01.631Z,17.37
2018-12-27T10:06:43.922Z,16.60
2018-12-27T10:09:25.012Z,16.32
2018-12-27T10:12:05.622Z,16.57
2018-12-27T10:14:46.440Z,17.48
2018-12-27T10:17:27.176Z,15.30
2018-12-27T10:20:07.985Z,15.40
2018-12-27T10:22:48.859Z,15.85
2018-12-27T10:25:29.301Z,15.35
2018-12-27T10:28:09.934Z,15.45
2018-12-27T10:30:50.598Z,15.65
2018-12-27T10:33:31.060Z,16.17
2018-12-27T10:36:12.417Z,15.93
2018-12-27T10:38:52.910Z,16.30
2018-12-27T10:41:33.370Z,15.23
2018-12-27T10:44:14.709Z,15.07
2018-12-27T10:46:55.130Z,16.15
2018-12-27T10:49:35.754Z,15.10
2018-12-27T10:52:17.094Z,15.80
2018-12-27T10:54:57.695Z,16.27
2018-12-27T10:57:38.442Z,15.60
2018-12-27T11:00:19.574Z,15.65
2018-12-27T11:03:00.492Z,16.17
2018-12-27T11:05:48.364Z,14.98
2018-12-27T11:08:24.359Z,15.85
2018-12-27T11:11:05.155Z,15.50
2018-12-27T11:13:45.929Z,15.93
2018-12-27T11:16:27.075Z,14.63
2018-12-27T11:19:07.999Z,16.48
2018-12-27T11:21:48.936Z,13.95
2018-12-27T11:24:29.546Z,14.95
2018-12-27T11:27:10.827Z,13.28
2018-12-27T11:29:51.691Z,15.08
2018-12-27T11:32:32.194Z,13.60
2018-12-27T11:35:13.232Z,13.22
2018-12-27T11:37:53.907Z,14.95
2018-12-27T11:40:34.520Z,13.85
2018-12-27T11:43:16.073Z,13.60
2018-12-27T11:45:57.450Z,14.50
2018-12-27T11:48:38.594Z,14.17
2018-12-27T11:51:19.682Z,13.30
2018-12-27T11:54:00.264Z,14.73
2018-12-27T11:56:40.871Z,13.38
2018-12-27T11:59:21.722Z,15.25
2018-12-27T12:02:02.694Z,13.35
2018-12-27T12:04:43.242Z,13.20
2018-12-27T12:07:24.466Z,13.63
2018-12-27T12:10:05.335Z,12.18
2018-12-27T12:12:46.186Z,12.33
2018-12-27T12:15:27.014Z,11.60
2018-12-27T12:18:07.518Z,12.80
2018-12-27T12:20:48.689Z,10.98
2018-12-27T12:23:29.673Z,12.90
2018-12-27T12:26:10.378Z,12.35
2018-12-27T12:28:51.545Z,10.45
2018-12-27T12:31:32.098Z,12.78
2018-12-27T12:34:13.317Z,12.60
2018-12-27T12:36:53.945Z,11.57
2018-12-27T12:39:34.726Z,12.37
2018-12-27T12:42:15.786Z,11.28
2018-12-27T12:44:58.206Z,10.80
2018-12-27T12:47:39.549Z,10.68
2018-12-27T12:50:20.418Z,11.50
2018-12-27T12:53:01.019Z,11.25
2018-12-27T12:55:41.838Z,11.80
2018-12-27T12:58:22.706Z,10.63
2018-12-27T13:01:03.494Z,9.83
2018-12-27T13:03:44.339Z,10.13
2018-12-27T13:06:25.216Z,10.75
2018-12-27T13:09:06.062Z,9.40
2018-12-27T13:11:46.987Z,10.88
2018-12-27T13:14:28.085Z,9.53
2018-12-27T13:17:08.879Z,8.78
2018-12-27T13:19:49.691Z,8.78
2018-12-27T13:22:30.396Z,9.73
2018-12-27T13:25:11.145Z,9.15
2018-12-27T13:27:52.589Z,10.45
2018-12-27T13:33:20.585Z,10.25
2018-12-27T13:36:01.692Z,8.60
2018-12-27T13:38:42.265Z,8.30
2018-12-27T13:41:23.011Z,8.50
2018-12-27T13:44:03.668Z,8.98
2018-12-27T13:46:44.234Z,9.10
2018-12-27T13:49:25.199Z,8.93
2018-12-27T13:52:05.854Z,9.47
2018-12-27T13:54:47.180Z,8.70
2018-12-27T13:57:27.777Z,8.57
2018-12-27T14:00:08.498Z,8.58
2018-12-27T14:02:49.139Z,9.68
2018-12-27T14:05:29.912Z,9.00
2018-12-27T14:08:10.960Z,8.40
2018-12-27T14:10:51.760Z,9.83
2018-12-27T14:13:32.567Z,8.08
2018-12-27T14:16:13.901Z,8.53
2018-12-27T14:18:54.414Z,9.30
2018-12-27T14:21:35.036Z,8.43
2018-12-27T14:24:15.746Z,9.20
2018-12-27T14:26:56.568Z,8.35
2018-12-27T14:29:37.316Z,8.57
2018-12-27T14:32:18.005Z,9.08
2018-12-27T14:34:58.862Z,8.98
2018-12-27T14:37:39.707Z,9.10
2018-12-27T14:40:20.679Z,8.60
2018-12-27T14:43:01.317Z,8.55
2018-12-27T14:45:42.309Z,8.43
2018-12-27T14:48:23.106Z,8.83
2018-12-27T14:51:04.447Z,9.98
2018-12-27T14:53:45.072Z,8.15
2018-12-27T14:56:25.445Z,9.50
2018-12-27T14:58:54.304Z,8.40
2018-12-27T15:04:43.431Z,9.55
2018-12-27T15:07:24.419Z,10.00
2018-12-27T15:10:05.009Z,9.20
2018-12-27T15:12:46.361Z,9.48
2018-12-27T15:15:26.975Z,7.92
2018-12-27T15:18:07.803Z,9.48
2018-12-27T15:20:48.370Z,9.28
2018-12-27T15:23:17.503Z,10.35
2018-12-27T15:26:05.598Z,11.08
2018-12-27T15:28:53.713Z,9.33
2018-12-27T15:34:26.953Z,9.33
2018-12-27T15:37:07.874Z,8.43
2018-12-27T15:39:48.376Z,9.33
2018-12-27T15:42:29.020Z,9.68
2018-12-27T15:45:09.546Z,10.90
2018-12-27T15:47:50.007Z,10.25
2018-12-27T15:50:30.901Z,10.32
2018-12-27T15:53:11.646Z,9.95
2018-12-27T15:55:52.942Z,10.35
2018-12-27T15:58:33.762Z,10.25
2018-12-27T16:01:14.542Z,11.12
2018-12-27T16:03:55.461Z,10.63
2018-12-27T16:06:36.057Z,9.68
2018-12-27T16:09:16.771Z,10.98
2018-12-27T16:11:57.453Z,9.57
2018-12-27T16:14:39.908Z,11.33
2018-12-27T16:17:20.794Z,11.37
2018-12-27T16:19:49.762Z,11.73
2018-12-27T16:22:38.349Z,10.78
2018-12-27T16:25:19.492Z,10.95
2018-12-27T16:28:00.376Z,10.10
2018-12-27T16:30:41.364Z,12.13
2018-12-27T16:33:22.037Z,11.60
2018-12-27T16:36:02.683Z,10.13
2018-12-27T16:38:43.837Z,11.05
2018-12-27T16:41:12.806Z,9.65
2018-12-27T16:44:01.013Z,11.03
2018-12-27T16:46:49.116Z,10.80
2018-12-27T16:49:29.620Z,10.57
2018-12-27T16:52:10.116Z,11.35
2018-12-27T16:54:50.548Z,11.22
2018-12-27T16:57:31.627Z,11.48
2018-12-27T17:00:12.489Z,11.53
2018-12-27T17:02:53.015Z,11.20
2018-12-27T17:05:33.766Z,11.30
2018-12-27T17:08:14.769Z,11.43
2018-12-27T17:10:55.706Z,11.13
2018-12-27T17:13:36.882Z,13.47
2018-12-27T17:16:17.880Z,12.98
2018-12-27T17:18:58.944Z,11.70
2018-12-27T17:21:40.331Z,11.25
2018-12-27T17:24:20.878Z,11.68
2018-12-27T17:27:01.811Z,11.60
2018-12-27T17:29:43.066Z,13.93
2018-12-27T17:32:23.843Z,12.13
2018-12-27T17:35:04.315Z,10.82
2018-12-27T17:37:45.247Z,10.75
2018-12-27T17:40:25.698Z,10.33
2018-12-27T17:43:06.439Z,11.22
2018-12-27T17:45:47.099Z,11.28
2018-12-27T17:48:28.409Z,11.40
2018-12-27T17:51:09.799Z,11.57
2018-12-27T17:53:50.500Z,11.03
2018-12-27T17:56:30.914Z,10.95
2018-12-27T17:59:12.105Z,11.15
2018-12-27T18:01:53.007Z,10.05
2018-12-27T18:04:34.679Z,12.35
2018-12-27T18:07:15.420Z,11.97
2018-12-27T18:09:56.666Z,11.33
2018-12-27T18:12:37.105Z,11.83
2018-12-27T18:15:17.697Z,11.30
2018-12-27T18:17:58.907Z,12.15
2018-12-27T18:20:27.847Z,11.15
2018-12-27T18:23:15.915Z,12.28
2018-12-27T18:26:04.021Z,13.03
2018-12-27T18:28:44.889Z,12.25
2018-12-27T18:31:25.877Z,12.40
2018-12-27T18:34:06.408Z,12.07
2018-12-27T18:36:47.610Z,12.28
2018-12-27T18:39:28.114Z,11.65
2018-12-27T18:42:09.350Z,12.18
2018-12-27T18:44:49.929Z,11.57
2018-12-27T18:47:31.176Z,13.32
2018-12-27T18:50:11.968Z,11.00
2018-12-27T18:52:53.292Z,12.58
2018-12-27T18:55:33.918Z,12.82
2018-12-27T18:58:14.671Z,12.30
2018-12-27T19:00:55.160Z,12.45
2018-12-27T19:03:35.845Z,12.75
2018-12-27T19:06:17.327Z,12.10
2018-12-27T19:08:58.351Z,13.45
2018-12-27T19:11:39.035Z,15.03
2018-12-27T19:14:19.600Z,13.60
2018-12-27T19:17:00.252Z,12.65
2018-12-27T19:19:40.814Z,14.23
2018-12-27T19:22:21.612Z,14.38
2018-12-27T19:25:02.482Z,12.60
2018-12-27T19:27:43.011Z,15.23
2018-12-27T19:30:24.088Z,13.88
2018-12-27T19:33:05.375Z,13.40
2018-12-27T19:35:46.038Z,14.15
2018-12-27T19:38:27.054Z,14.30
2018-12-27T19:41:08.396Z,13.15
2018-12-27T19:43:49.488Z,14.23
2018-12-27T19:46:30.840Z,14.57
2018-12-27T19:49:11.496Z,13.10
2018-12-27T19:51:52.394Z,12.75
2018-12-27T19:54:32.967Z,14.40
2018-12-27T19:57:13.816Z,13.75
2018-12-27T19:59:54.487Z,13.88
2018-12-27T20:02:35.138Z,13.50
2018-12-27T20:05:16.008Z,13.30
2018-12-27T20:07:59.424Z,14.50
2018-12-27T20:10:27.571Z,12.15
2018-12-27T20:12:57.169Z,12.80
2018-12-27T20:15:45.849Z,13.28
2018-12-27T20:18:27.102Z,13.50
2018-12-27T20:21:07.625Z,11.90
2018-12-27T20:23:37.296Z,10.53
2018-12-27T20:26:25.435Z,11.28
2018-12-27T20:29:06.695Z,11.70
2018-12-27T20:31:47.840Z,13.35
2018-12-27T20:34:29.411Z,11.90
2018-12-27T20:36:58.703Z,11.43
2018-12-27T20:39:47.296Z,11.18
2018-12-27T20:42:28.164Z,12.40
2018-12-27T20:45:11.457Z,10.30
2018-12-27T20:47:52.121Z,10.90
2018-12-27T20:50:33.536Z,11.07
2018-12-27T20:53:14.532Z,9.98
2018-12-27T20:58:52.028Z,9.70
2018-12-27T21:01:32.597Z,11.90
2018-12-27T21:06:45.985Z,10.70
2018-12-27T21:09:34.379Z,10.82
2018-12-27T21:12:03.370Z,10.88
2018-12-27T21:14:52.159Z,10.58
2018-12-27T21:17:21.254Z,11.88
2018-12-27T21:20:02.053Z,11.38
2018-12-27T21:22:31.247Z,11.08
2018-12-27T21:28:13.017Z,11.40
2018-12-27T21:30:42.276Z,11.40
2018-12-27T21:33:31.193Z,11.93
2018-12-27T21:36:02.846Z,11.48
2018-12-27T21:41:49.961Z,11.38
2018-12-27T21:44:19.450Z,11.97
2018-12-27T21:47:28.637Z,11.18
2018-12-27T21:50:16.966Z,10.98
2018-12-27T21:53:00.363Z,11.48
2018-12-27T21:55:43.916Z,11.57
2018-12-27T21:58:24.563Z,11.40
2018-12-27T22:01:08.475Z,11.95
2018-12-27T22:03:49.628Z,12.28
2018-12-27T22:06:30.789Z,12.33
2018-12-27T22:09:12.193Z,11.93
2018-12-27T22:11:53.010Z,11.78
2018-12-27T22:14:33.525Z,13.27
2018-12-27T22:17:14.036Z,12.05
2018-12-27T22:19:58.541Z,11.53
2018-12-27T22:22:39.992Z,13.48
2018-12-27T22:25:21.944Z,12.25
2018-12-27T22:28:03.661Z,13.58
2018-12-27T22:30:45.985Z,13.32
2018-12-27T22:33:15.060Z,11.30
2018-12-27T22:36:03.256Z,13.35
2018-12-27T22:38:51.451Z,12.33
2018-12-27T22:47:10.402Z,12.43
2018-12-27T22:49:51.851Z,12.40
2018-12-27T22:52:32.873Z,14.03
2018-12-27T22:55:13.577Z,13.60
2018-12-27T22:57:54.892Z,13.10
2018-12-27T23:00:37.549Z,12.50
2018-12-27T23:03:18.119Z,13.98
2018-12-27T23:05:59.438Z,12.90
2018-12-27T23:08:43.255Z,12.63
2018-12-27T23:11:23.793Z,13.00
2018-12-27T23:14:04.322Z,12.85
2018-12-27T23:16:44.151Z,13.55
2018-12-27T23:19:13.122Z,13.30
2018-12-27T23:22:01.327Z,13.85
2018-12-27T23:24:42.273Z,14.18
2018-12-27T23:27:23.468Z,13.80
2018-12-27T23:30:04.253Z,15.00
2018-12-27T23:32:47.925Z,12.87
2018-12-27T23:35:28.437Z,14.63
2018-12-27T23:38:09.593Z,15.65
2018-12-27T23:40:50.105Z,15.45
2018-12-27T23:43:30.797Z,14.33
2018-12-27T23:46:13.284Z,14.15
2018-12-27T23:48:54.412Z,14.70
2018-12-27T23:51:35.332Z,15.90
2018-12-27T23:54:15.939Z,15.38
2018-12-27T23:56:56.554Z,14.80
2018-12-27T23:59:37.966Z,16.62
